Time;durP1;ratioP1;P1;durP2;ratioP2;P2;SDS_P1;SDS_P2;PMS_P1;PMS_P2;Temp;Humidity;BMP_temperature;BMP_pressure;BME280_temperature;BME280_humidity;BME280_pressure;Samples;Min_cycle;Max_cycle;Signal;HPM_P1;HPM_P2
2021/07/26 00:02:19;;;;;;;31.62;19.45;;;;;;;18.57;67.91;100056.88;1601357;89;21014;-72
2021/07/26 00:04:45;;;;;;;35.03;21.02;;;;;;;18.55;67.99;100054.92;1617527;88;21099;-72
2021/07/26 00:07:11;;;;;;;28.07;19.62;;;;;;;18.48;68.05;100055.81;1621334;87;21131;-72
2021/07/26 00:09:37;;;;;;;31.85;20.70;;;;;;;18.43;68.11;100054.34;1675903;85;21006;-72
2021/07/26 00:12:04;;;;;;;27.22;19.95;;;;;;;18.38;68.20;100055.55;1675458;84;21025;-72
2021/07/26 00:14:32;;;;;;;28.15;19.15;;;;;;;18.35;68.28;100054.66;1656308;85;21026;-72
2021/07/26 00:16:58;;;;;;;25.90;19.73;;;;;;;18.33;68.35;100054.59;1675504;85;21498;-72
2021/07/26 00:19:24;;;;;;;24.95;19.75;;;;;;;18.28;68.44;100049.88;1675540;84;21841;-72
2021/07/26 00:21:50;;;;;;;25.70;19.60;;;;;;;18.21;68.51;100050.49;1675251;85;21069;-72
2021/07/26 00:24:17;;;;;;;24.92;18.77;;;;;;;18.15;68.63;100058.16;1674668;85;21423;-72
2021/07/26 00:26:44;;;;;;;23.95;19.85;;;;;;;18.12;68.71;100058.58;1674603;85;21037;-72
2021/07/26 00:29:10;;;;;;;25.08;18.25;;;;;;;18.07;68.81;100058.98;1659475;85;21068;-72
2021/07/26 00:31:36;;;;;;;24.37;19.55;;;;;;;18.01;68.91;100058.02;1659477;86;21110;-72
2021/07/26 00:34:19;;;;;;;32.05;21.23;;;;;;;17.93;69.03;100051.58;1669349;85;21506;-72
2021/07/26 00:36:56;;;;;;;32.40;22.32;;;;;;;17.87;69.12;100059.23;1675077;84;21029;-72
2021/07/26 00:39:24;;;;;;;29.45;20.30;;;;;;;17.77;69.24;100062.95;1675431;84;21472;-72
2021/07/26 00:41:50;;;;;;;28.80;20.52;;;;;;;17.68;69.42;100055.70;1675692;85;21022;-72
2021/07/26 00:44:17;;;;;;;25.50;19.92;;;;;;;17.61;69.56;100048.20;1672228;85;21766;-72
2021/07/26 00:46:44;;;;;;;24.35;19.17;;;;;;;17.56;69.69;100052.60;1669691;84;21022;-72
2021/07/26 00:49:11;;;;;;;28.12;19.82;;;;;;;17.44;69.82;100047.12;1663230;85;21813;-72
2021/07/26 00:51:38;;;;;;;26.23;21.52;;;;;;;17.37;69.97;100052.58;1662783;86;21440;-72
2021/07/26 00:54:04;;;;;;;29.20;20.00;;;;;;;17.31;70.14;100050.75;1673599;84;21042;-72
2021/07/26 00:56:30;;;;;;;29.05;21.17;;;;;;;17.27;70.32;100049.56;1663184;86;21186;-73
2021/07/26 00:58:56;;;;;;;33.33;22.15;;;;;;;17.25;70.45;100048.95;1663330;86;21051;-72
2021/07/26 01:01:22;;;;;;;45.73;28.57;;;;;;;17.23;70.58;100047.02;1642145;86;21523;-72
2021/07/26 01:03:49;;;;;;;35.15;24.52;;;;;;;17.18;70.71;100042.80;1662982;86;21071;-72
2021/07/26 01:06:15;;;;;;;32.33;22.82;;;;;;;17.14;70.82;100042.93;1663216;86;21067;-72
2021/07/26 01:08:41;;;;;;;43.60;24.90;;;;;;;17.08;70.93;100047.86;1641799;86;21047;-73
2021/07/26 01:11:07;;;;;;;33.13;23.95;;;;;;;17.04;71.06;100048.00;1663144;86;21020;-72
2021/07/26 01:13:33;;;;;;;35.80;23.47;;;;;;;17.01;71.18;100049.79;1642160;86;21038;-73
2021/07/26 01:15:59;;;;;;;43.05;27.10;;;;;;;16.98;71.27;100052.92;1663365;86;21603;-72
2021/07/26 01:18:28;;;;;;;34.63;23.83;;;;;;;16.94;71.40;100055.75;1663104;86;21079;-72
2021/07/26 01:21:00;;;;;;;34.78;23.57;;;;;;;16.89;71.51;100054.22;1663465;86;21346;-72
2021/07/26 01:23:29;;;;;;;35.88;24.30;;;;;;;16.83;71.65;100055.11;1663160;86;21028;-72
2021/07/26 01:25:55;;;;;;;34.70;23.35;;;;;;;16.79;71.80;100051.20;1642672;86;21115;-72
2021/07/26 01:28:24;;;;;;;35.28;24.72;;;;;;;16.74;71.91;100048.36;1663375;86;21558;-72
2021/07/26 01:30:51;;;;;;;34.33;24.35;;;;;;;16.69;72.04;100047.66;1663422;86;21079;-72
2021/07/26 01:33:17;;;;;;;30.00;23.95;;;;;;;16.66;72.19;100045.92;1663345;84;21500;-72
2021/07/26 01:35:43;;;;;;;29.87;24.12;;;;;;;16.63;72.32;100036.94;1663191;86;21023;-72
2021/07/26 01:38:09;;;;;;;29.05;22.45;;;;;;;16.60;72.46;100041.41;1662901;86;21026;-72
2021/07/26 01:40:38;;;;;;;29.67;22.75;;;;;;;16.57;72.59;100041.30;1663108;86;21039;-72
2021/07/26 01:43:09;;;;;;;26.17;21.70;;;;;;;16.55;72.71;100038.50;1663469;86;21595;-72
2021/07/26 01:45:36;;;;;;;27.67;24.43;;;;;;;16.53;72.83;100039.25;1663023;86;22069;-72
2021/07/26 01:48:13;;;;;;;27.17;23.18;;;;;;;16.51;72.94;100040.80;1663004;86;21114;-72
2021/07/26 01:50:46;;;;;;;32.93;25.37;;;;;;;16.49;73.02;100039.69;1654964;86;21563;-72
2021/07/26 01:53:12;;;;;;;32.65;24.25;;;;;;;16.47;73.16;100037.72;1658199;86;21102;-72
2021/07/26 01:55:38;;;;;;;30.45;23.12;;;;;;;16.47;73.25;100033.68;1663324;86;21047;-72
2021/07/26 01:58:04;;;;;;;26.25;22.70;;;;;;;16.47;73.32;100029.64;1663846;86;21127;-72
2021/07/26 02:00:30;;;;;;;26.62;22.32;;;;;;;16.43;73.43;100031.11;1663940;86;21471;-72
2021/07/26 02:02:56;;;;;;;29.57;24.65;;;;;;;16.38;73.54;100028.27;1663905;86;21539;-72
2021/07/26 02:05:22;;;;;;;30.70;25.30;;;;;;;16.37;73.63;100039.23;1663883;86;21051;-72
2021/07/26 02:07:48;;;;;;;31.15;26.17;;;;;;;16.36;73.72;100048.38;1669022;84;21009;-72
2021/07/26 02:10:14;;;;;;;31.07;26.15;;;;;;;16.32;73.83;100050.67;1690983;84;21277;-72
2021/07/26 02:12:40;;;;;;;36.20;29.15;;;;;;;16.31;73.93;100047.66;1684882;84;21005;-72
2021/07/26 02:15:07;;;;;;;33.48;27.15;;;;;;;16.31;74.03;100044.97;1681058;85;20953;-73
2021/07/26 02:17:33;;;;;;;31.20;25.85;;;;;;;16.30;74.12;100047.34;1681176;85;21065;-72
2021/07/26 02:20:00;;;;;;;30.23;25.32;;;;;;;16.28;74.22;100044.06;1681440;85;21577;-72
2021/07/26 02:22:26;;;;;;;33.50;26.27;;;;;;;16.27;74.33;100044.27;1681307;85;21832;-72
2021/07/26 02:24:53;;;;;;;30.90;26.60;;;;;;;16.26;74.42;100041.26;1681281;85;21025;-72
2021/07/26 02:27:19;;;;;;;28.77;24.75;;;;;;;16.25;74.50;100035.08;1681049;85;21049;-72
2021/07/26 02:29:45;;;;;;;30.08;26.85;;;;;;;16.22;74.60;100035.48;1681329;85;21073;-72
2021/07/26 02:32:11;;;;;;;28.98;24.72;;;;;;;16.18;74.67;100042.36;1681495;85;21010;-72
2021/07/26 02:34:37;;;;;;;29.40;25.37;;;;;;;16.15;74.76;100042.77;1681274;85;21117;-72
2021/07/26 02:37:04;;;;;;;29.42;26.07;;;;;;;16.12;74.86;100043.71;1681316;85;21025;-72
2021/07/26 02:39:30;;;;;;;29.77;26.17;;;;;;;16.09;74.96;100047.66;1681362;85;21521;-72
2021/07/26 02:41:56;;;;;;;29.65;25.10;;;;;;;16.07;75.06;100039.00;1681508;85;21510;-72
2021/07/26 02:44:22;;;;;;;29.90;25.55;;;;;;;16.04;75.13;100039.42;1681022;85;21547;-72
2021/07/26 02:49:27;;;;;;;34.85;26.33;;;;;;;16.03;75.33;100029.70;1799784;79;22681;-72
2021/07/26 02:51:53;;;;;;;30.95;25.02;;;;;;;15.96;75.39;100026.21;1759872;81;21015;-73
2021/07/26 02:54:19;;;;;;;30.82;26.77;;;;;;;15.91;75.47;100023.33;1759531;81;21477;-73
2021/07/26 02:56:45;;;;;;;31.60;26.93;;;;;;;15.89;75.55;100032.97;1760010;81;21543;-73
2021/07/26 02:59:11;;;;;;;35.78;28.73;;;;;;;15.86;75.66;100025.84;1759692;81;21460;-72
2021/07/26 03:01:38;;;;;;;30.50;26.95;;;;;;;15.83;75.76;100026.28;1760003;81;21436;-73
2021/07/26 03:04:04;;;;;;;42.23;30.62;;;;;;;15.83;75.83;100026.28;1759933;81;21043;-72
2021/07/26 03:06:30;;;;;;;45.85;30.40;;;;;;;15.83;75.88;100034.34;1759672;81;21127;-72
2021/07/26 03:08:56;;;;;;;40.95;28.60;;;;;;;15.81;75.95;100045.30;1759827;81;20948;-72
2021/07/26 03:11:23;;;;;;;42.53;28.98;;;;;;;15.78;76.03;100045.73;1759255;81;20931;-73
2021/07/26 03:13:49;;;;;;;39.50;27.87;;;;;;;15.74;76.09;100050.39;1760190;81;21003;-73
2021/07/26 03:16:15;;;;;;;43.90;29.57;;;;;;;15.74;76.16;100053.08;1759545;81;21523;-73
2021/07/26 03:18:41;;;;;;;37.88;28.75;;;;;;;15.72;76.21;100051.96;1759795;81;21078;-72
2021/07/26 03:21:09;;;;;;;34.15;27.93;;;;;;;15.72;76.28;100057.34;1759705;81;20980;-73
2021/07/26 03:23:35;;;;;;;34.48;27.73;;;;;;;15.68;76.30;100057.96;1740554;81;21498;-73
2021/07/26 03:26:01;;;;;;;32.60;28.00;;;;;;;15.65;76.40;100053.84;1759819;81;20983;-73
2021/07/26 03:28:27;;;;;;;35.38;28.38;;;;;;;15.67;76.47;100064.37;1759807;80;20991;-73
2021/07/26 03:30:53;;;;;;;37.13;29.40;;;;;;;15.69;76.52;100068.48;1759924;81;21115;-73
2021/07/26 03:33:19;;;;;;;32.88;26.85;;;;;;;15.70;76.58;100065.28;1759459;81;21035;-72
2021/07/26 03:35:45;;;;;;;36.38;27.27;;;;;;;15.71;76.59;100068.29;1759564;81;21008;-72
2021/07/26 03:38:11;;;;;;;37.33;29.55;;;;;;;15.72;76.66;100072.64;1759783;81;20995;-73
2021/07/26 03:40:38;;;;;;;33.20;29.20;;;;;;;15.73;76.72;100078.30;1759557;81;21109;-72
2021/07/26 03:43:04;;;;;;;42.17;29.60;;;;;;;15.76;76.76;100076.56;1759427;81;21135;-72
2021/07/26 03:45:30;;;;;;;43.02;31.12;;;;;;;15.78;76.82;100073.13;1755396;81;20995;-72
2021/07/26 03:47:59;;;;;;;42.33;30.97;;;;;;;15.79;76.87;100073.45;1755470;81;21062;-72
2021/07/26 03:50:24;;;;;;;59.23;42.70;;;;;;;15.83;76.94;100074.68;1761769;81;21074;-73
2021/07/26 03:52:52;;;;;;;49.85;36.42;;;;;;;15.89;76.99;100074.66;1762352;81;21019;-73
2021/07/26 03:55:27;;;;;;;45.25;34.70;;;;;;;15.97;77.08;100070.91;1762196;81;21147;-73
2021/07/26 03:57:53;;;;;;;48.87;36.70;;;;;;;16.12;77.15;100074.13;1761961;81;21566;-73
2021/07/26 04:00:23;;;;;;;46.68;35.58;;;;;;;16.35;77.21;100073.11;1761737;81;21002;-73
2021/07/26 04:03:17;;;;;;;43.42;35.20;;;;;;;16.73;77.25;100066.38;1761597;81;21019;-73
2021/07/26 04:05:29;;;;;;;44.15;33.42;;;;;;;17.21;77.24;100063.91;1757618;81;21081;-73
2021/07/26 04:07:51;;;;;;;44.10;34.23;;;;;;;17.63;77.04;100062.80;1760439;81;21707;-73
2021/07/26 04:10:18;;;;;;;44.18;39.05;;;;;;;17.86;76.78;100064.32;1761656;81;21061;-73
2021/07/26 04:12:50;;;;;;;42.30;35.15;;;;;;;18.08;76.58;100061.98;1761742;81;21077;-73
2021/07/26 04:15:12;;;;;;;42.50;33.55;;;;;;;18.22;76.39;100055.37;1760764;81;21006;-73
2021/07/26 04:17:38;;;;;;;41.25;32.13;;;;;;;18.23;76.19;100051.07;1761985;81;21806;-73
2021/07/26 04:20:05;;;;;;;40.10;34.15;;;;;;;18.12;76.10;100050.48;1761393;81;21654;-73
2021/07/26 04:22:32;;;;;;;41.20;35.75;;;;;;;18.00;76.01;100053.67;1761701;81;21636;-73
2021/07/26 04:24:58;;;;;;;44.85;36.73;;;;;;;17.91;75.94;100059.88;1761702;81;21444;-73
2021/07/26 04:27:27;;;;;;;44.88;37.48;;;;;;;17.91;75.81;100045.56;1761680;81;21050;-73
2021/07/26 04:29:56;;;;;;;51.40;38.17;;;;;;;17.97;75.61;100046.03;1761457;81;21045;-73
2021/07/26 04:32:22;;;;;;;49.38;39.90;;;;;;;17.97;75.61;100046.03;1761742;81;21637;-73
2021/07/26 04:34:48;;;;;;;43.17;35.35;;;;;;;17.97;75.49;100041.98;1761576;81;20998;-73
2021/07/26 04:37:14;;;;;;;48.23;38.05;;;;;;;17.98;75.39;100040.91;1761394;81;20999;-73
2021/07/26 04:39:40;;;;;;;46.68;37.78;;;;;;;17.94;75.35;100041.89;1761662;81;21002;-73
2021/07/26 04:42:06;;;;;;;44.90;37.00;;;;;;;17.98;75.31;100045.51;1761489;81;21011;-73
2021/07/26 04:44:32;;;;;;;45.63;35.95;;;;;;;17.98;75.19;100046.30;1761584;81;21793;-73
2021/07/26 04:46:58;;;;;;;45.00;39.85;;;;;;;17.97;75.14;100044.68;1761358;81;20995;-73
2021/07/26 04:49:24;;;;;;;45.73;37.78;;;;;;;17.96;75.11;100056.52;1759197;80;21018;-73
2021/07/26 04:51:50;;;;;;;40.85;35.33;;;;;;;17.92;75.03;100045.88;1758921;81;21010;-73
2021/07/26 04:54:16;;;;;;;37.30;31.23;;;;;;;17.93;75.02;100044.31;1759021;81;21018;-73
2021/07/26 04:56:42;;;;;;;45.38;39.63;;;;;;;17.97;74.97;100039.28;1758969;81;21491;-73
2021/07/26 04:59:08;;;;;;;55.98;49.95;;;;;;;17.98;74.91;100040.91;1758762;81;20982;-73
2021/07/26 05:01:35;;;;;;;45.73;38.85;;;;;;;17.95;74.92;100038.67;1758803;81;21053;-73
2021/07/26 05:04:01;;;;;;;42.73;36.50;;;;;;;17.90;74.93;100041.23;1758508;81;21073;-73
2021/07/26 05:06:27;;;;;;;37.75;33.30;;;;;;;17.88;74.91;100048.20;1758903;81;21144;-73
2021/07/26 05:08:53;;;;;;;36.58;32.63;;;;;;;17.87;74.92;100052.48;1758865;81;21114;-73
2021/07/26 05:11:23;;;;;;;41.20;33.35;;;;;;;17.88;74.94;100052.77;1758667;81;21077;-73
2021/07/26 05:13:49;;;;;;;43.20;36.30;;;;;;;17.87;74.90;100061.93;1758935;81;21018;-73
2021/07/26 05:16:15;;;;;;;45.50;34.38;;;;;;;17.84;74.94;100063.70;1758519;81;21041;-72
2021/07/26 05:18:41;;;;;;;39.10;34.88;;;;;;;17.84;74.96;100067.75;1759052;81;21128;-73
2021/07/26 05:21:07;;;;;;;39.00;34.50;;;;;;;17.92;75.01;100067.45;1758462;81;21108;-73
2021/07/26 05:23:34;;;;;;;39.55;35.23;;;;;;;18.04;74.96;100068.88;1759017;81;21522;-73
2021/07/26 05:26:01;;;;;;;40.95;33.05;;;;;;;18.12;75.00;100068.58;1749763;81;21062;-73
2021/07/26 05:28:27;;;;;;;39.08;33.83;;;;;;;18.15;74.96;100073.00;1728636;83;21109;-73
2021/07/26 05:30:53;;;;;;;41.45;34.38;;;;;;;18.13;74.93;100073.73;1733003;81;21093;-73
2021/07/26 05:33:19;;;;;;;42.45;34.10;;;;;;;18.14;74.97;100074.05;1745618;81;21131;-73
2021/07/26 05:35:45;;;;;;;44.35;36.80;;;;;;;18.18;74.99;100076.59;1745404;80;21022;-73
2021/07/26 05:38:11;;;;;;;45.58;36.45;;;;;;;18.26;75.02;100081.66;1728597;83;21368;-73
2021/07/26 05:40:37;;;;;;;51.05;36.50;;;;;;;18.35;74.98;100083.01;1750690;81;21085;-73
2021/07/26 05:43:04;;;;;;;48.42;37.83;;;;;;;18.42;74.94;100086.45;1758469;81;21049;-73
2021/07/26 05:45:30;;;;;;;47.33;38.28;;;;;;;18.50;74.90;100083.12;1758279;81;21073;-74
2021/07/26 05:47:56;;;;;;;47.60;37.75;;;;;;;18.56;74.89;100080.88;1758467;81;20996;-74
2021/07/26 05:50:22;;;;;;;48.75;38.15;;;;;;;18.63;74.86;100081.61;1758556;81;20999;-74
2021/07/26 05:52:48;;;;;;;41.28;36.77;;;;;;;18.69;74.81;100090.97;1758937;81;21772;-74
2021/07/26 05:55:14;;;;;;;44.10;36.13;;;;;;;18.76;74.78;100090.87;1758946;81;21010;-74
2021/07/26 05:57:46;;;;;;;41.63;35.40;;;;;;;18.84;74.74;100084.62;1759200;81;21932;-73
2021/07/26 06:00:15;;;;;;;38.98;34.05;;;;;;;18.94;74.68;100085.39;1758529;81;21389;-73
2021/07/26 06:02:40;;;;;;;41.40;35.03;;;;;;;19.05;74.44;100077.84;1758993;81;21011;-74
2021/07/26 06:05:07;;;;;;;44.58;34.30;;;;;;;19.05;74.44;100077.84;1758729;81;21399;-74
2021/07/26 06:07:33;;;;;;;42.43;34.88;;;;;;;19.14;74.51;100080.48;1758892;81;21014;-74
2021/07/26 06:09:59;;;;;;;53.50;36.10;;;;;;;19.20;74.47;100075.52;1758895;81;21117;-74
2021/07/26 06:12:26;;;;;;;43.00;37.70;;;;;;;19.19;74.40;100076.56;1758745;81;21015;-74
2021/07/26 06:14:52;;;;;;;47.58;39.50;;;;;;;19.17;74.38;100075.16;1758920;81;21578;-74
2021/07/26 06:17:19;;;;;;;44.15;36.90;;;;;;;19.16;74.36;100077.56;1758570;81;21535;-73
2021/07/26 06:19:45;;;;;;;37.58;33.63;;;;;;;19.22;74.37;100071.21;1758976;81;21128;-73
2021/07/26 06:22:11;;;;;;;43.00;31.25;;;;;;;19.31;74.27;100065.77;1758240;81;21562;-74
2021/07/26 06:24:37;;;;;;;36.03;29.50;;;;;;;19.39;74.24;100074.86;1758805;81;21081;-73
2021/07/26 06:27:03;;;;;;;40.38;31.07;;;;;;;19.43;74.12;100075.55;1758798;81;21010;-74
2021/07/26 06:29:29;;;;;;;35.95;29.35;;;;;;;19.52;74.08;100083.31;1758820;81;21074;-74
2021/07/26 06:31:58;;;;;;;33.70;26.62;;;;;;;19.63;73.98;100083.84;1758907;81;21022;-74
2021/07/26 06:34:24;;;;;;;35.63;29.72;;;;;;;19.71;73.83;100082.11;1758716;81;21708;-74
2021/07/26 06:36:50;;;;;;;35.48;29.15;;;;;;;19.80;73.70;100080.70;1758927;81;21010;-74
2021/07/26 06:39:16;;;;;;;38.30;29.42;;;;;;;19.96;73.59;100079.95;1758654;81;20998;-74
2021/07/26 06:41:43;;;;;;;38.78;28.42;;;;;;;20.10;73.39;100081.34;1758782;81;21034;-74
2021/07/26 06:44:09;;;;;;;33.15;27.50;;;;;;;20.22;73.32;100075.89;1758510;81;21081;-74
2021/07/26 06:46:39;;;;;;;31.00;25.77;;;;;;;20.48;73.21;100088.09;1758499;81;21180;-74
2021/07/26 06:49:05;;;;;;;33.53;27.48;;;;;;;20.73;73.02;100086.65;1730910;81;21034;-74
2021/07/26 06:51:31;;;;;;;25.72;23.00;;;;;;;21.08;72.83;100091.86;1752574;81;21014;-74
2021/07/26 06:53:57;;;;;;;25.30;22.60;;;;;;;21.48;72.58;100099.05;1753036;81;21078;-74
2021/07/26 06:56:25;;;;;;;24.35;21.85;;;;;;;21.84;72.34;100099.32;1752771;80;21065;-74
2021/07/26 06:58:51;;;;;;;30.65;26.25;;;;;;;22.15;72.11;100100.56;1752902;81;21495;-74
2021/07/26 07:01:17;;;;;;;24.27;21.73;;;;;;;22.51;71.79;100091.47;1752517;81;20979;-74
2021/07/26 07:03:45;;;;;;;27.37;22.40;;;;;;;22.87;71.42;100090.23;1752524;81;21069;-74
2021/07/26 07:06:14;;;;;;;22.42;20.02;;;;;;;23.16;70.94;100088.58;1750613;81;21519;-74
2021/07/26 07:08:41;;;;;;;22.40;19.40;;;;;;;23.34;70.56;100093.08;1741419;80;20907;-74
2021/07/26 07:11:14;;;;;;;23.50;20.32;;;;;;;23.38;70.09;100094.20;1734739;81;22495;-74
2021/07/26 07:13:42;;;;;;;20.70;18.25;;;;;;;23.44;69.68;100088.81;1733293;80;20958;-74
2021/07/26 07:16:09;;;;;;;22.52;19.23;;;;;;;23.62;69.19;100082.95;1723831;81;21050;-74
2021/07/26 07:18:35;;;;;;;22.13;19.82;;;;;;;23.57;68.70;100085.13;1729865;81;21014;-75
2021/07/26 07:21:02;;;;;;;21.40;19.10;;;;;;;23.71;68.44;100087.66;1743760;81;21466;-75
2021/07/26 07:23:28;;;;;;;23.50;21.05;;;;;;;24.03;67.90;100090.25;1750251;81;21941;-74
2021/07/26 07:25:54;;;;;;;23.85;21.15;;;;;;;24.13;67.44;100097.70;1745809;81;21081;-75
2021/07/26 07:28:21;;;;;;;21.10;18.90;;;;;;;24.48;67.00;100091.55;1735872;81;21021;-74
2021/07/26 07:30:47;;;;;;;20.08;18.00;;;;;;;24.70;66.44;100088.08;1731882;81;21140;-75
2021/07/26 07:33:13;;;;;;;21.65;19.32;;;;;;;24.85;65.95;100085.38;1724773;81;21039;-75
2021/07/26 07:35:39;;;;;;;21.62;18.73;;;;;;;24.79;65.53;100085.08;1735528;82;22469;-75
2021/07/26 07:38:05;;;;;;;24.37;18.02;;;;;;;24.88;65.21;100093.02;1750285;82;21408;-75
2021/07/26 07:40:31;;;;;;;19.57;17.37;;;;;;;25.09;64.66;100097.40;1748094;81;21026;-74
2021/07/26 07:42:57;;;;;;;19.90;17.37;;;;;;;25.48;64.25;100090.00;1729188;81;21050;-75
2021/07/26 07:45:24;;;;;;;19.35;17.37;;;;;;;25.73;63.52;100096.83;1728806;81;20908;-75
2021/07/26 07:47:53;;;;;;;23.47;19.82;;;;;;;25.93;63.00;100094.60;1731550;81;21831;-74
2021/07/26 07:50:20;;;;;;;21.65;17.77;;;;;;;26.13;62.44;100096.71;1732420;81;21562;-74
2021/07/26 07:52:45;;;;;;;23.20;18.50;;;;;;;26.03;61.84;100093.20;1746369;80;21066;-76
2021/07/26 07:55:12;;;;;;;20.43;18.27;;;;;;;26.08;61.52;100096.72;1737642;81;21206;-77
2021/07/26 07:57:38;;;;;;;19.82;17.70;;;;;;;26.17;60.98;100094.23;1726990;83;21081;-77
2021/07/26 08:00:06;;;;;;;19.90;17.80;;;;;;;26.16;60.45;100097.52;1729139;81;21940;-77
2021/07/26 08:02:33;;;;;;;41.15;26.57;;;;;;;26.21;60.08;100096.14;1728950;81;21030;-77
2021/07/26 08:04:59;;;;;;;23.50;18.15;;;;;;;26.48;59.59;100103.14;1727177;83;21014;-77
2021/07/26 08:07:25;;;;;;;23.85;19.40;;;;;;;26.68;59.02;100101.65;1728057;81;21066;-77
2021/07/26 08:09:51;;;;;;;23.02;18.75;;;;;;;26.79;58.45;100100.48;1727122;83;21108;-77
2021/07/26 08:12:18;;;;;;;22.07;18.20;;;;;;;26.98;57.98;100102.04;1727287;83;22531;-77
2021/07/26 08:14:45;;;;;;;24.45;19.50;;;;;;;27.05;57.58;100099.25;1727423;83;21052;-77
2021/07/26 08:17:11;;;;;;;26.73;23.95;;;;;;;27.22;57.17;100098.83;1729682;81;21073;-77
2021/07/26 08:19:37;;;;;;;25.17;18.95;;;;;;;27.35;56.86;100095.42;1727509;83;21021;-78
2021/07/26 08:22:03;;;;;;;21.97;17.23;;;;;;;27.40;56.44;100095.39;1727327;83;21077;-78
2021/07/26 08:24:29;;;;;;;19.20;17.30;;;;;;;27.44;56.04;100095.63;1748448;81;22019;-77
2021/07/26 08:26:55;;;;;;;23.75;16.85;;;;;;;27.55;55.70;100094.46;1750391;81;21488;-78
2021/07/26 08:29:21;;;;;;;21.57;18.37;;;;;;;27.57;55.25;100092.23;1738324;81;20993;-77
2021/07/26 08:31:47;;;;;;;20.70;18.52;;;;;;;27.61;54.94;100091.92;1752563;81;21005;-78
2021/07/26 08:34:13;;;;;;;20.02;17.05;;;;;;;27.60;54.60;100094.39;1730416;81;21081;-79
2021/07/26 08:36:39;;;;;;;18.57;16.65;;;;;;;27.70;54.35;100105.25;1733923;81;21845;-78
2021/07/26 08:39:05;;;;;;;16.52;14.83;;;;;;;27.79;54.03;100104.89;1747096;81;21042;-78
2021/07/26 08:41:31;;;;;;;15.20;13.60;;;;;;;27.77;53.72;100105.72;1727366;83;21018;-78
2021/07/26 08:43:57;;;;;;;15.10;13.28;;;;;;;27.82;53.36;100101.57;1733956;81;21552;-78
2021/07/26 08:46:23;;;;;;;16.97;13.83;;;;;;;27.96;52.96;100102.51;1752047;80;20975;-77
2021/07/26 08:48:50;;;;;;;15.53;12.75;;;;;;;27.95;52.52;100104.98;1751757;81;21807;-78
2021/07/26 08:51:19;;;;;;;14.83;12.47;;;;;;;28.02;52.21;100107.37;1729188;81;21022;-78
2021/07/26 08:53:45;;;;;;;15.35;13.75;;;;;;;28.08;51.65;100104.85;1747858;81;21026;-78
2021/07/26 08:56:19;;;;;;;18.70;13.00;;;;;;;28.09;51.31;100110.05;1740550;81;21093;-76
2021/07/26 08:58:46;;;;;;;19.02;13.68;;;;;;;28.08;50.97;100109.78;1724878;81;21018;-76
2021/07/26 09:01:13;;;;;;;22.82;15.43;;;;;;;27.98;50.86;100111.25;1724282;81;21837;-75
2021/07/26 09:03:41;;;;;;;20.85;15.90;;;;;;;28.09;50.89;100118.83;1733199;81;21054;-75
2021/07/26 09:06:07;;;;;;;20.05;16.40;;;;;;;28.19;50.88;100122.27;1751389;81;21014;-76
2021/07/26 09:08:35;;;;;;;18.75;15.95;;;;;;;28.22;50.87;100122.23;1741337;81;21006;-75
2021/07/26 09:11:03;;;;;;;20.97;15.72;;;;;;;28.18;50.95;100117.89;1731795;80;21050;-76
2021/07/26 09:13:36;;;;;;;16.52;14.87;;;;;;;28.29;51.00;100118.03;1725301;81;21658;-76
2021/07/26 09:16:21;;;;;;;19.10;15.50;;;;;;;28.35;50.78;100119.34;1731226;81;21030;-78
2021/07/26 09:19:02;;;;;;;16.73;14.38;;;;;;;28.24;50.61;100118.11;1747175;81;21019;-78
2021/07/26 09:21:50;;;;;;;19.32;15.18;;;;;;;28.33;50.57;100111.95;1736996;81;21669;-78
2021/07/26 09:24:29;;;;;;;15.70;13.80;;;;;;;28.32;50.37;100115.27;1750132;81;21014;-79
2021/07/26 09:27:11;;;;;;;15.60;14.00;;;;;;;28.28;50.08;100110.11;1723520;81;22516;-79
2021/07/26 09:29:37;;;;;;;15.05;13.60;;;;;;;28.03;49.77;100115.31;1752853;81;21345;-79
2021/07/26 09:32:05;;;;;;;16.23;14.18;;;;;;;28.04;49.78;100116.92;1752460;81;21054;-79
2021/07/26 09:34:37;;;;;;;18.07;13.83;;;;;;;28.08;49.66;100118.02;1752926;81;21050;-79
2021/07/26 09:37:06;;;;;;;15.25;13.75;;;;;;;28.22;49.51;100125.80;1724593;81;21097;-79
2021/07/26 09:39:32;;;;;;;14.35;12.95;;;;;;;28.19;49.28;100115.41;1721460;81;21971;-78
2021/07/26 09:42:00;;;;;;;15.05;13.30;;;;;;;28.31;49.21;100115.55;1752653;81;21014;-78
2021/07/26 09:44:28;;;;;;;14.78;13.20;;;;;;;28.39;48.88;100123.14;1752620;81;20979;-79
2021/07/26 09:47:15;;;;;;;15.70;13.40;;;;;;;28.39;48.58;100111.62;1752373;81;21002;-78
2021/07/26 09:49:41;;;;;;;15.23;13.10;;;;;;;28.41;48.28;100118.16;1741566;81;21085;-78
2021/07/26 09:52:08;;;;;;;14.58;12.95;;;;;;;28.31;47.90;100119.67;1761429;81;22037;-79
2021/07/26 09:54:49;;;;;;;14.10;12.63;;;;;;;28.07;47.69;100117.77;1761185;81;21006;-79
2021/07/26 09:57:25;;;;;;;17.40;12.73;;;;;;;28.12;47.68;100110.84;1761213;81;21026;-79
2021/07/26 09:59:51;;;;;;;15.30;13.08;;;;;;;28.48;47.68;100113.13;1761376;81;21423;-78
2021/07/26 10:02:19;;;;;;;18.92;14.28;;;;;;;28.64;47.45;100122.81;1761145;81;21006;-79
2021/07/26 10:04:47;;;;;;;14.18;12.68;;;;;;;28.70;47.34;100123.84;1761311;81;21822;-78
2021/07/26 10:07:17;;;;;;;13.72;11.90;;;;;;;28.79;46.94;100118.48;1761265;81;21035;-79
2021/07/26 10:09:46;;;;;;;18.10;13.50;;;;;;;28.89;46.77;100123.82;1761223;81;21002;-78
2021/07/26 10:12:20;;;;;;;18.42;13.68;;;;;;;29.08;46.74;100116.95;1760934;81;21021;-79
2021/07/26 10:14:49;;;;;;;14.75;12.65;;;;;;;29.13;46.58;100122.37;1760617;81;21014;-79
2021/07/26 10:17:16;;;;;;;17.65;13.05;;;;;;;29.33;46.54;100119.88;1761189;81;22455;-79
2021/07/26 10:19:42;;;;;;;15.32;13.03;;;;;;;29.36;46.22;100122.83;1761060;81;20938;-79
2021/07/26 10:22:18;;;;;;;16.52;13.22;;;;;;;29.49;46.09;100121.23;1761290;81;21053;-78
2021/07/26 10:24:47;;;;;;;13.32;12.03;;;;;;;29.44;45.92;100123.53;1760745;81;21053;-79
2021/07/26 10:27:26;;;;;;;;;;;;;;;29.23;45.77;100125.77;1764009;81;21017;-78
2021/07/26 10:29:56;;;;;;;15.18;13.35;;;;;;;28.89;45.76;100129.89;1760974;81;21849;-78
2021/07/26 10:32:38;;;;;;;16.07;14.40;;;;;;;28.65;45.86;100137.59;1760889;81;21014;-78
2021/07/26 10:35:21;;;;;;;14.40;12.30;;;;;;;28.29;45.89;100130.38;1761246;81;21081;-78
2021/07/26 10:37:48;;;;;;;13.68;12.37;;;;;;;28.05;45.92;100125.42;1759108;81;21045;-78
2021/07/26 10:40:24;;;;;;;14.87;13.30;;;;;;;28.11;45.88;100128.39;1761303;81;21077;-78
2021/07/26 10:42:55;;;;;;;22.45;13.22;;;;;;;28.10;45.86;100128.70;1761251;81;21838;-78
2021/07/26 10:45:54;;;;;;;13.93;12.28;;;;;;;27.94;45.95;100128.02;1760940;81;21010;-78
2021/07/26 10:48:30;;;;;;;14.55;13.03;;;;;;;27.89;45.99;100130.83;1761588;81;21009;-78
2021/07/26 10:50:58;;;;;;;17.55;13.45;;;;;;;27.85;46.00;100131.14;1759602;80;21049;-78
2021/07/26 10:53:41;;;;;;;13.83;12.37;;;;;;;27.85;46.17;100128.39;1758657;81;21386;-78
2021/07/26 10:56:11;;;;;;;15.53;13.75;;;;;;;27.89;46.16;100128.09;1758670;81;21838;-78
2021/07/26 10:58:58;;;;;;;13.83;12.30;;;;;;;27.94;46.06;100128.56;1758601;81;21010;-78
2021/07/26 11:01:29;;;;;;;12.85;11.55;;;;;;;27.92;46.07;100122.02;1758481;81;21006;-78
2021/07/26 11:03:56;;;;;;;12.20;11.00;;;;;;;27.97;46.09;100126.05;1758283;81;21017;-79
2021/07/26 11:06:43;;;;;;;13.00;11.70;;;;;;;28.05;45.92;100115.83;1758534;81;21034;-78
2021/07/26 11:09:32;;;;;;;14.65;12.15;;;;;;;28.09;45.64;100119.66;1758579;81;22687;-78
2021/07/26 11:11:55;;;;;;;12.55;11.33;;;;;;;28.07;45.55;100115.58;1758047;81;20999;-78
2021/07/26 11:14:21;;;;;;;11.85;10.65;;;;;;;28.02;45.43;100107.37;1758682;81;21486;-78
2021/07/26 11:17:04;;;;;;;14.93;12.23;;;;;;;27.98;45.32;100112.62;1758619;81;21014;-78